sensor_id;sensor_type;location;lat;lon;timestamp;P1;P2;P0
64570;PMS5003;74649;52.358;17.020;2023-12-07T00:04:19;43.33;35.67;21.33
64570;PMS5003;74649;52.358;17.020;2023-12-07T00:09:19;44.33;35.00;21.33
64570;PMS5003;74649;52.358;17.020;2023-12-07T00:14:20;43.00;33.33;21.33
64570;PMS5003;74649;52.358;17.020;2023-12-07T00:19:21;41.00;34.00;21.00
64570;PMS5003;74649;52.358;17.020;2023-12-07T00:24:22;41.00;34.00;20.00
64570;PMS5003;74649;52.358;17.020;2023-12-07T00:29:22;41.00;33.33;21.00
64570;PMS5003;74649;52.358;17.020;2023-12-07T00:34:24;42.00;33.67;21.33
64570;PMS5003;74649;52.358;17.020;2023-12-07T00:39:24;41.00;33.00;21.33
64570;PMS5003;74649;52.358;17.020;2023-12-07T00:44:24;42.33;33.00;21.33
64570;PMS5003;74649;52.358;17.020;2023-12-07T00:49:26;42.33;34.00;21.33
64570;PMS5003;74649;52.358;17.020;2023-12-07T00:54:26;41.33;35.00;21.00
64570;PMS5003;74649;52.358;17.020;2023-12-07T00:59:26;41.67;35.00;21.33
64570;PMS5003;74649;52.358;17.020;2023-12-07T01:04:28;39.00;32.67;21.33
64570;PMS5003;74649;52.358;17.020;2023-12-07T01:09:29;41.00;33.67;20.33
64570;PMS5003;74649;52.358;17.020;2023-12-07T01:14:29;42.00;35.00;21.33
64570;PMS5003;74649;52.358;17.020;2023-12-07T01:19:31;42.00;35.00;21.00
64570;PMS5003;74649;52.358;17.020;2023-12-07T01:24:31;40.67;33.00;20.33
64570;PMS5003;74649;52.358;17.020;2023-12-07T01:29:32;41.33;33.00;20.67
64570;PMS5003;74649;52.358;17.020;2023-12-07T01:34:33;40.33;32.67;20.33
64570;PMS5003;74649;52.358;17.020;2023-12-07T01:39:34;39.33;32.67;21.00
64570;PMS5003;74649;52.358;17.020;2023-12-07T01:44:34;41.33;34.33;21.00
64570;PMS5003;74649;52.358;17.020;2023-12-07T01:49:36;41.33;34.00;20.67
64570;PMS5003;74649;52.358;17.020;2023-12-07T01:54:37;41.00;33.00;20.00
64570;PMS5003;74649;52.358;17.020;2023-12-07T01:59:38;39.67;34.00;20.33
64570;PMS5003;74649;52.358;17.020;2023-12-07T02:04:40;41.00;32.00;20.67
64570;PMS5003;74649;52.358;17.020;2023-12-07T02:09:40;39.00;32.00;20.67
64570;PMS5003;74649;52.358;17.020;2023-12-07T02:14:41;39.33;33.00;21.00
64570;PMS5003;74649;52.358;17.020;2023-12-07T02:19:51;41.33;33.00;21.00
64570;PMS5003;74649;52.358;17.020;2023-12-07T02:25:03;39.00;32.00;20.00
64570;PMS5003;74649;52.358;17.020;2023-12-07T02:30:07;38.00;32.00;20.00
64570;PMS5003;74649;52.358;17.020;2023-12-07T02:35:09;38.33;31.67;20.00
64570;PMS5003;74649;52.358;17.020;2023-12-07T02:40:10;40.33;33.00;20.67
64570;PMS5003;74649;52.358;17.020;2023-12-07T02:45:15;39.00;33.00;20.33
64570;PMS5003;74649;52.358;17.020;2023-12-07T02:50:15;40.00;33.00;21.00
64570;PMS5003;74649;52.358;17.020;2023-12-07T02:55:16;41.33;33.33;21.00
64570;PMS5003;74649;52.358;17.020;2023-12-07T03:00:18;40.33;33.00;20.33
64570;PMS5003;74649;52.358;17.020;2023-12-07T03:05:18;41.33;34.67;20.33
64570;PMS5003;74649;52.358;17.020;2023-12-07T03:10:18;40.00;33.00;20.00
64570;PMS5003;74649;52.358;17.020;2023-12-07T03:15:20;38.00;31.33;20.00
64570;PMS5003;74649;52.358;17.020;2023-12-07T03:20:20;39.00;31.33;20.00
64570;PMS5003;74649;52.358;17.020;2023-12-07T03:25:20;39.00;32.00;20.00
64570;PMS5003;74649;52.358;17.020;2023-12-07T03:30:22;38.00;31.33;20.00
64570;PMS5003;74649;52.358;17.020;2023-12-07T03:35:22;39.33;32.00;20.00
64570;PMS5003;74649;52.358;17.020;2023-12-07T03:40:23;40.33;33.00;20.00
64570;PMS5003;74649;52.358;17.020;2023-12-07T03:45:25;39.00;33.00;19.33
64570;PMS5003;74649;52.358;17.020;2023-12-07T03:50:25;39.00;33.00;20.00
64570;PMS5003;74649;52.358;17.020;2023-12-07T03:55:25;39.00;32.00;19.33
64570;PMS5003;74649;52.358;17.020;2023-12-07T04:00:27;40.33;33.00;19.33
64570;PMS5003;74649;52.358;17.020;2023-12-07T04:05:27;40.33;32.00;20.00
64570;PMS5003;74649;52.358;17.020;2023-12-07T04:10:28;37.00;31.00;19.33
64570;PMS5003;74649;52.358;17.020;2023-12-07T04:15:29;37.00;30.33;20.00
64570;PMS5003;74649;52.358;17.020;2023-12-07T04:20:30;38.67;31.33;20.00
64570;PMS5003;74649;52.358;17.020;2023-12-07T04:25:30;40.33;32.00;19.33
64570;PMS5003;74649;52.358;17.020;2023-12-07T04:30:32;39.67;33.00;19.33
64570;PMS5003;74649;52.358;17.020;2023-12-07T04:35:32;38.67;31.00;19.33
64570;PMS5003;74649;52.358;17.020;2023-12-07T04:40:32;38.00;31.00;19.33
64570;PMS5003;74649;52.358;17.020;2023-12-07T04:45:34;38.67;31.67;19.33
64570;PMS5003;74649;52.358;17.020;2023-12-07T04:50:34;39.00;32.00;20.00
64570;PMS5003;74649;52.358;17.020;2023-12-07T04:55:35;37.00;31.00;19.33
64570;PMS5003;74649;52.358;17.020;2023-12-07T05:00:36;37.00;30.33;19.33
64570;PMS5003;74649;52.358;17.020;2023-12-07T05:05:37;37.33;30.00;19.00
64570;PMS5003;74649;52.358;17.020;2023-12-07T05:10:37;37.33;30.33;19.00
64570;PMS5003;74649;52.358;17.020;2023-12-07T05:15:39;36.33;31.00;20.00
64570;PMS5003;74649;52.358;17.020;2023-12-07T05:20:39;36.67;32.00;19.33
64570;PMS5003;74649;52.358;17.020;2023-12-07T05:25:39;39.67;32.00;20.33
64570;PMS5003;74649;52.358;17.020;2023-12-07T05:30:41;43.00;35.00;21.00
64570;PMS5003;74649;52.358;17.020;2023-12-07T05:35:42;42.33;33.00;21.00
64570;PMS5003;74649;52.358;17.020;2023-12-07T05:40:42;43.00;34.33;21.00
64570;PMS5003;74649;52.358;17.020;2023-12-07T05:45:43;40.33;34.00;21.33
64570;PMS5003;74649;52.358;17.020;2023-12-07T05:50:44;40.00;34.00;22.00
64570;PMS5003;74649;52.358;17.020;2023-12-07T05:55:44;38.33;32.33;21.00
64570;PMS5003;74649;52.358;17.020;2023-12-07T06:00:46;39.00;32.33;21.00
64570;PMS5003;74649;52.358;17.020;2023-12-07T06:05:46;39.00;33.00;21.33
64570;PMS5003;74649;52.358;17.020;2023-12-07T06:10:46;40.00;33.00;22.00
64570;PMS5003;74649;52.358;17.020;2023-12-07T06:15:48;40.67;34.00;22.00
64570;PMS5003;74649;52.358;17.020;2023-12-07T06:20:49;38.67;32.00;21.00
64570;PMS5003;74649;52.358;17.020;2023-12-07T06:25:49;37.00;32.00;20.00
64570;PMS5003;74649;52.358;17.020;2023-12-07T06:30:51;37.67;32.67;21.00
64570;PMS5003;74649;52.358;17.020;2023-12-07T06:35:51;39.00;34.00;22.00
64570;PMS5003;74649;52.358;17.020;2023-12-07T06:40:51;43.00;36.00;24.00
64570;PMS5003;74649;52.358;17.020;2023-12-07T06:45:53;45.00;37.00;25.00
64570;PMS5003;74649;52.358;17.020;2023-12-07T06:50:53;38.67;33.00;24.00
64570;PMS5003;74649;52.358;17.020;2023-12-07T06:55:54;38.00;34.00;24.00
64570;PMS5003;74649;52.358;17.020;2023-12-07T07:00:55;39.67;33.33;23.00
64570;PMS5003;74649;52.358;17.020;2023-12-07T07:05:56;37.33;34.00;22.00
64570;PMS5003;74649;52.358;17.020;2023-12-07T07:10:56;32.00;31.00;20.00
64570;PMS5003;74649;52.358;17.020;2023-12-07T07:15:58;30.67;29.33;18.33
64570;PMS5003;74649;52.358;17.020;2023-12-07T07:20:58;28.67;27.00;18.00
64570;PMS5003;74649;52.358;17.020;2023-12-07T07:25:58;27.00;24.00;15.00
64570;PMS5003;74649;52.358;17.020;2023-12-07T07:31:00;20.67;20.33;14.00
64570;PMS5003;74649;52.358;17.020;2023-12-07T07:36:00;19.00;19.00;10.00
64570;PMS5003;74649;52.358;17.020;2023-12-07T07:41:01;19.00;17.33;8.00
64570;PMS5003;74649;52.358;17.020;2023-12-07T07:46:03;15.67;15.67;7.00
64570;PMS5003;74649;52.358;17.020;2023-12-07T07:51:03;12.00;12.00;6.33
64570;PMS5003;74649;52.358;17.020;2023-12-07T07:56:04;13.00;11.00;6.00
64570;PMS5003;74649;52.358;17.020;2023-12-07T08:01:06;11.33;10.00;5.00
64570;PMS5003;74649;52.358;17.020;2023-12-07T08:06:07;15.67;12.67;6.00
64570;PMS5003;74649;52.358;17.020;2023-12-07T08:11:08;20.00;16.33;7.00
64570;PMS5003;74649;52.358;17.020;2023-12-07T08:16:09;18.33;17.00;8.00
64570;PMS5003;74649;52.358;17.020;2023-12-07T08:21:17;19.00;17.00;7.00
64570;PMS5003;74649;52.358;17.020;2023-12-07T08:26:18;16.00;16.00;4.00
64570;PMS5003;74649;52.358;17.020;2023-12-07T08:31:20;9.00;8.67;3.00
64570;PMS5003;74649;52.358;17.020;2023-12-07T08:36:20;4.00;4.00;2.00
64570;PMS5003;74649;52.358;17.020;2023-12-07T08:41:21;4.00;3.67;1.00
64570;PMS5003;74649;52.358;17.020;2023-12-07T08:46:22;4.33;3.33;0.00
64570;PMS5003;74649;52.358;17.020;2023-12-07T08:51:23;4.00;3.00;0.00
64570;PMS5003;74649;52.358;17.020;2023-12-07T08:56:23;11.00;10.00;2.00
64570;PMS5003;74649;52.358;17.020;2023-12-07T09:01:25;17.00;16.33;6.33
64570;PMS5003;74649;52.358;17.020;2023-12-07T09:06:25;22.67;18.67;8.00
64570;PMS5003;74649;52.358;17.020;2023-12-07T09:11:27;28.00;23.00;11.00
64570;PMS5003;74649;52.358;17.020;2023-12-07T09:16:29;31.67;28.33;15.67
64570;PMS5003;74649;52.358;17.020;2023-12-07T09:21:29;38.00;32.00;20.67
64570;PMS5003;74649;52.358;17.020;2023-12-07T09:26:29;41.00;34.00;22.00
64570;PMS5003;74649;52.358;17.020;2023-12-07T09:31:31;41.67;34.00;22.00
64570;PMS5003;74649;52.358;17.020;2023-12-07T09:36:31;40.00;34.00;21.00
64570;PMS5003;74649;52.358;17.020;2023-12-07T09:41:32;35.00;31.00;21.00
64570;PMS5003;74649;52.358;17.020;2023-12-07T09:46:34;31.00;28.00;19.00
64570;PMS5003;74649;52.358;17.020;2023-12-07T09:51:34;31.00;28.67;18.00
64570;PMS5003;74649;52.358;17.020;2023-12-07T09:56:36;28.00;26.00;17.00
64570;PMS5003;74649;52.358;17.020;2023-12-07T10:01:37;28.00;27.67;16.00
64570;PMS5003;74649;52.358;17.020;2023-12-07T10:06:42;28.67;27.67;15.00
64570;PMS5003;74649;52.358;17.020;2023-12-07T10:11:42;31.33;29.33;16.67
64570;PMS5003;74649;52.358;17.020;2023-12-07T10:16:53;36.00;31.00;18.00
64570;PMS5003;74649;52.358;17.020;2023-12-07T10:21:54;34.33;31.67;19.00
64570;PMS5003;74649;52.358;17.020;2023-12-07T10:26:54;35.00;31.00;20.00
64570;PMS5003;74649;52.358;17.020;2023-12-07T10:32:00;37.00;32.00;19.00
64570;PMS5003;74649;52.358;17.020;2023-12-07T10:37:01;36.00;32.00;19.33
64570;PMS5003;74649;52.358;17.020;2023-12-07T10:42:02;35.00;31.00;20.00
64570;PMS5003;74649;52.358;17.020;2023-12-07T10:47:07;38.00;32.00;20.00
64570;PMS5003;74649;52.358;17.020;2023-12-07T10:52:10;36.33;31.33;19.33
64570;PMS5003;74649;52.358;17.020;2023-12-07T10:57:13;34.00;31.00;19.00
64570;PMS5003;74649;52.358;17.020;2023-12-07T11:02:15;34.00;30.00;18.00
64570;PMS5003;74649;52.358;17.020;2023-12-07T11:07:17;34.00;31.00;19.00
64570;PMS5003;74649;52.358;17.020;2023-12-07T11:12:23;31.00;29.00;19.00
64570;PMS5003;74649;52.358;17.020;2023-12-07T11:17:42;31.33;28.33;17.00
64570;PMS5003;74649;52.358;17.020;2023-12-07T11:22:47;29.33;28.00;16.00
64570;PMS5003;74649;52.358;17.020;2023-12-07T11:27:53;31.00;28.33;17.00
64570;PMS5003;74649;52.358;17.020;2023-12-07T11:33:01;33.00;29.00;18.00
64570;PMS5003;74649;52.358;17.020;2023-12-07T11:38:04;30.67;28.33;18.00
64570;PMS5003;74649;52.358;17.020;2023-12-07T11:43:05;31.67;27.33;17.00
64570;PMS5003;74649;52.358;17.020;2023-12-07T11:48:11;32.33;29.00;18.00
64570;PMS5003;74649;52.358;17.020;2023-12-07T11:53:12;32.33;29.00;17.33
64570;PMS5003;74649;52.358;17.020;2023-12-07T11:58:12;31.00;29.00;17.33
64570;PMS5003;74649;52.358;17.020;2023-12-07T12:03:14;31.67;29.33;17.33
64570;PMS5003;74649;52.358;17.020;2023-12-07T12:08:15;31.33;28.00;17.00
64570;PMS5003;74649;52.358;17.020;2023-12-07T12:13:16;33.00;28.00;16.33
64570;PMS5003;74649;52.358;17.020;2023-12-07T12:18:17;29.33;28.00;16.33
64570;PMS5003;74649;52.358;17.020;2023-12-07T12:23:18;35.33;31.00;18.33
64570;PMS5003;74649;52.358;17.020;2023-12-07T12:28:18;40.00;32.67;19.00
64570;PMS5003;74649;52.358;17.020;2023-12-07T12:33:21;42.00;33.33;20.00
64570;PMS5003;74649;52.358;17.020;2023-12-07T12:38:21;43.33;36.00;21.33
64570;PMS5003;74649;52.358;17.020;2023-12-07T12:43:22;44.00;36.00;21.00
64570;PMS5003;74649;52.358;17.020;2023-12-07T12:48:24;45.00;37.00;22.00
64570;PMS5003;74649;52.358;17.020;2023-12-07T12:53:24;43.33;35.00;22.00
64570;PMS5003;74649;52.358;17.020;2023-12-07T12:58:27;43.00;35.00;22.00
64570;PMS5003;74649;52.358;17.020;2023-12-07T13:03:29;41.33;35.00;21.00
64570;PMS5003;74649;52.358;17.020;2023-12-07T13:08:29;41.33;34.00;20.00
64570;PMS5003;74649;52.358;17.020;2023-12-07T13:13:29;41.00;35.00;21.00
64570;PMS5003;74649;52.358;17.020;2023-12-07T13:18:31;43.00;36.33;21.00
64570;PMS5003;74649;52.358;17.020;2023-12-07T13:23:31;41.67;35.00;21.00
64570;PMS5003;74649;52.358;17.020;2023-12-07T13:28:32;43.00;35.33;21.00
64570;PMS5003;74649;52.358;17.020;2023-12-07T13:33:34;41.00;33.00;21.00
64570;PMS5003;74649;52.358;17.020;2023-12-07T13:38:34;41.00;33.00;21.00
64570;PMS5003;74649;52.358;17.020;2023-12-07T13:43:34;39.00;32.00;20.00
64570;PMS5003;74649;52.358;17.020;2023-12-07T13:48:36;38.00;32.00;20.33
64570;PMS5003;74649;52.358;17.020;2023-12-07T13:53:36;37.67;32.00;20.00
64570;PMS5003;74649;52.358;17.020;2023-12-07T13:58:37;40.33;33.67;20.00
64570;PMS5003;74649;52.358;17.020;2023-12-07T14:03:38;38.67;32.33;20.00
64570;PMS5003;74649;52.358;17.020;2023-12-07T14:08:39;37.00;31.00;20.00
64570;PMS5003;74649;52.358;17.020;2023-12-07T14:13:39;39.00;32.33;20.00
64570;PMS5003;74649;52.358;17.020;2023-12-07T14:18:41;37.00;31.67;19.00
64570;PMS5003;74649;52.358;17.020;2023-12-07T14:23:41;36.33;31.33;19.33
64570;PMS5003;74649;52.358;17.020;2023-12-07T14:28:41;37.67;31.33;19.00
64570;PMS5003;74649;52.358;17.020;2023-12-07T14:33:44;37.00;31.33;19.33
64570;PMS5003;74649;52.358;17.020;2023-12-07T14:38:44;37.00;31.00;19.00
64570;PMS5003;74649;52.358;17.020;2023-12-07T14:43:44;36.67;31.67;18.00
64570;PMS5003;74649;52.358;17.020;2023-12-07T14:48:46;37.00;31.00;18.33
64570;PMS5003;74649;52.358;17.020;2023-12-07T14:53:46;38.00;32.00;19.67
64570;PMS5003;74649;52.358;17.020;2023-12-07T14:58:47;38.00;32.00;20.00
64570;PMS5003;74649;52.358;17.020;2023-12-07T15:03:48;38.33;32.00;20.00
64570;PMS5003;74649;52.358;17.020;2023-12-07T15:08:48;39.33;32.33;19.00
64570;PMS5003;74649;52.358;17.020;2023-12-07T15:13:49;42.00;35.00;20.33
64570;PMS5003;74649;52.358;17.020;2023-12-07T15:18:51;40.33;34.00;20.00
64570;PMS5003;74649;52.358;17.020;2023-12-07T15:23:51;40.00;33.33;20.00
64570;PMS5003;74649;52.358;17.020;2023-12-07T15:28:51;41.00;33.33;21.00
64570;PMS5003;74649;52.358;17.020;2023-12-07T15:33:53;41.33;34.00;20.00
64570;PMS5003;74649;52.358;17.020;2023-12-07T15:38:53;44.33;34.33;20.00
64570;PMS5003;74649;52.358;17.020;2023-12-07T15:43:53;44.67;35.33;21.00
64570;PMS5003;74649;52.358;17.020;2023-12-07T15:48:55;45.33;36.33;23.00
64570;PMS5003;74649;52.358;17.020;2023-12-07T15:53:56;44.33;36.33;24.00
64570;PMS5003;74649;52.358;17.020;2023-12-07T15:58:56;46.33;37.00;23.00
64570;PMS5003;74649;52.358;17.020;2023-12-07T16:03:58;47.67;38.00;23.00
64570;PMS5003;74649;52.358;17.020;2023-12-07T16:08:58;47.00;37.00;23.00
64570;PMS5003;74649;52.358;17.020;2023-12-07T16:13:58;48.00;39.00;24.00
64570;PMS5003;74649;52.358;17.020;2023-12-07T16:19:00;48.67;38.33;24.00
64570;PMS5003;74649;52.358;17.020;2023-12-07T16:24:00;47.00;38.00;25.00
64570;PMS5003;74649;52.358;17.020;2023-12-07T16:29:00;49.00;39.00;25.00
64570;PMS5003;74649;52.358;17.020;2023-12-07T16:34:03;47.33;39.00;24.33
64570;PMS5003;74649;52.358;17.020;2023-12-07T16:39:05;48.33;39.00;24.33
64570;PMS5003;74649;52.358;17.020;2023-12-07T16:44:05;50.00;39.67;24.33
64570;PMS5003;74649;52.358;17.020;2023-12-07T16:49:07;49.33;38.33;24.33
64570;PMS5003;74649;52.358;17.020;2023-12-07T16:54:07;49.33;39.00;25.00
64570;PMS5003;74649;52.358;17.020;2023-12-07T16:59:08;48.33;39.33;24.33
64570;PMS5003;74649;52.358;17.020;2023-12-07T17:04:09;48.33;39.00;24.33
64570;PMS5003;74649;52.358;17.020;2023-12-07T17:09:10;49.33;39.33;24.67
64570;PMS5003;74649;52.358;17.020;2023-12-07T17:14:10;48.67;38.67;24.67
64570;PMS5003;74649;52.358;17.020;2023-12-07T17:19:12;50.00;40.00;25.00
64570;PMS5003;74649;52.358;17.020;2023-12-07T17:24:12;49.33;39.33;26.00
64570;PMS5003;74649;52.358;17.020;2023-12-07T17:29:12;51.00;41.00;25.00
64570;PMS5003;74649;52.358;17.020;2023-12-07T17:34:14;50.00;40.00;25.00
64570;PMS5003;74649;52.358;17.020;2023-12-07T17:39:14;51.00;40.33;24.33
64570;PMS5003;74649;52.358;17.020;2023-12-07T17:44:15;49.00;39.33;25.00
64570;PMS5003;74649;52.358;17.020;2023-12-07T17:49:16;51.00;40.33;25.00
64570;PMS5003;74649;52.358;17.020;2023-12-07T17:54:17;50.00;41.00;26.00
64570;PMS5003;74649;52.358;17.020;2023-12-07T17:59:17;49.33;40.00;25.00
64570;PMS5003;74649;52.358;17.020;2023-12-07T18:04:19;51.00;41.00;26.00
64570;PMS5003;74649;52.358;17.020;2023-12-07T18:09:19;50.33;42.00;26.00
64570;PMS5003;74649;52.358;17.020;2023-12-07T18:14:20;52.33;42.33;26.00
64570;PMS5003;74649;52.358;17.020;2023-12-07T18:19:21;53.00;43.00;26.00
64570;PMS5003;74649;52.358;17.020;2023-12-07T18:24:22;51.33;43.00;25.00
64570;PMS5003;74649;52.358;17.020;2023-12-07T18:29:22;50.00;41.00;26.00
64570;PMS5003;74649;52.358;17.020;2023-12-07T18:34:23;50.33;41.33;26.00
64570;PMS5003;74649;52.358;17.020;2023-12-07T18:39:24;50.33;42.00;26.00
64570;PMS5003;74649;52.358;17.020;2023-12-07T18:44:26;52.00;41.00;26.00
64570;PMS5003;74649;52.358;17.020;2023-12-07T18:49:28;53.00;42.00;26.00
64570;PMS5003;74649;52.358;17.020;2023-12-07T18:54:28;50.33;41.00;25.00
64570;PMS5003;74649;52.358;17.020;2023-12-07T18:59:29;50.33;41.67;25.00
64570;PMS5003;74649;52.358;17.020;2023-12-07T19:04:30;50.33;42.00;24.00
64570;PMS5003;74649;52.358;17.020;2023-12-07T19:09:31;50.33;41.33;26.00
64570;PMS5003;74649;52.358;17.020;2023-12-07T19:14:31;50.67;41.33;25.00
64570;PMS5003;74649;52.358;17.020;2023-12-07T19:19:33;50.33;41.33;26.00
64570;PMS5003;74649;52.358;17.020;2023-12-07T19:24:33;51.67;42.00;26.00
64570;PMS5003;74649;52.358;17.020;2023-12-07T19:29:33;52.00;41.33;26.00
64570;PMS5003;74649;52.358;17.020;2023-12-07T19:34:35;51.67;41.33;26.00
64570;PMS5003;74649;52.358;17.020;2023-12-07T19:39:35;50.00;41.00;26.00
64570;PMS5003;74649;52.358;17.020;2023-12-07T19:44:35;49.67;40.00;26.00
64570;PMS5003;74649;52.358;17.020;2023-12-07T19:49:37;49.00;39.67;26.33
64570;PMS5003;74649;52.358;17.020;2023-12-07T19:54:37;51.00;41.33;27.00
64570;PMS5003;74649;52.358;17.020;2023-12-07T19:59:38;52.00;41.33;26.33
64570;PMS5003;74649;52.358;17.020;2023-12-07T20:04:39;52.00;41.33;26.33
64570;PMS5003;74649;52.358;17.020;2023-12-07T20:09:40;53.33;42.33;26.00
64570;PMS5003;74649;52.358;17.020;2023-12-07T20:14:40;53.33;41.33;26.00
64570;PMS5003;74649;52.358;17.020;2023-12-07T20:19:42;53.33;42.33;26.33
64570;PMS5003;74649;52.358;17.020;2023-12-07T20:24:42;52.33;42.00;26.33
64570;PMS5003;74649;52.358;17.020;2023-12-07T20:29:42;52.33;41.33;26.00
64570;PMS5003;74649;52.358;17.020;2023-12-07T20:34:44;51.33;42.00;26.33
64570;PMS5003;74649;52.358;17.020;2023-12-07T20:39:44;53.33;42.00;27.00
64570;PMS5003;74649;52.358;17.020;2023-12-07T20:44:45;53.33;43.00;26.33
64570;PMS5003;74649;52.358;17.020;2023-12-07T20:49:47;53.33;42.67;26.33
64570;PMS5003;74649;52.358;17.020;2023-12-07T20:54:47;52.67;43.00;26.33
64570;PMS5003;74649;52.358;17.020;2023-12-07T20:59:47;53.33;43.00;26.33
64570;PMS5003;74649;52.358;17.020;2023-12-07T21:04:49;53.00;42.00;26.33
64570;PMS5003;74649;52.358;17.020;2023-12-07T21:09:49;53.33;42.67;26.33
64570;PMS5003;74649;52.358;17.020;2023-12-07T21:14:49;54.33;43.00;27.00
64570;PMS5003;74649;52.358;17.020;2023-12-07T21:19:51;53.33;42.67;26.67
64570;PMS5003;74649;52.358;17.020;2023-12-07T21:24:52;52.33;43.00;26.33
64570;PMS5003;74649;52.358;17.020;2023-12-07T21:29:52;53.00;43.00;26.00
64570;PMS5003;74649;52.358;17.020;2023-12-07T21:34:54;54.00;43.33;26.33
64570;PMS5003;74649;52.358;17.020;2023-12-07T21:39:54;56.33;44.33;27.00
64570;PMS5003;74649;52.358;17.020;2023-12-07T21:44:54;57.00;44.33;28.00
64570;PMS5003;74649;52.358;17.020;2023-12-07T21:49:56;55.33;43.33;28.00
64570;PMS5003;74649;52.358;17.020;2023-12-07T21:54:56;54.00;43.33;28.00
64570;PMS5003;74649;52.358;17.020;2023-12-07T21:59:57;55.00;43.33;28.00
64570;PMS5003;74649;52.358;17.020;2023-12-07T22:04:58;54.33;43.33;27.00
64570;PMS5003;74649;52.358;17.020;2023-12-07T22:09:59;55.00;43.33;28.00
64570;PMS5003;74649;52.358;17.020;2023-12-07T22:14:59;55.00;43.33;27.00
64570;PMS5003;74649;52.358;17.020;2023-12-07T22:20:01;54.00;43.33;27.00
64570;PMS5003;74649;52.358;17.020;2023-12-07T22:25:01;55.00;44.00;27.33
64570;PMS5003;74649;52.358;17.020;2023-12-07T22:30:02;55.33;43.33;27.00
64570;PMS5003;74649;52.358;17.020;2023-12-07T22:35:04;54.00;42.33;27.00
64570;PMS5003;74649;52.358;17.020;2023-12-07T22:40:05;54.00;43.33;28.00
64570;PMS5003;74649;52.358;17.020;2023-12-07T22:45:07;55.00;44.33;27.00
64570;PMS5003;74649;52.358;17.020;2023-12-07T22:50:10;55.33;43.33;27.00
64570;PMS5003;74649;52.358;17.020;2023-12-07T22:55:10;57.00;44.33;28.00
64570;PMS5003;74649;52.358;17.020;2023-12-07T23:00:11;56.33;44.33;28.00
64570;PMS5003;74649;52.358;17.020;2023-12-07T23:05:13;56.33;44.33;27.67
64570;PMS5003;74649;52.358;17.020;2023-12-07T23:10:13;56.00;45.00;28.00
64570;PMS5003;74649;52.358;17.020;2023-12-07T23:15:14;57.33;44.33;28.00
64570;PMS5003;74649;52.358;17.020;2023-12-07T23:20:15;56.33;44.33;28.00
64570;PMS5003;74649;52.358;17.020;2023-12-07T23:25:16;57.00;46.00;28.00
64570;PMS5003;74649;52.358;17.020;2023-12-07T23:30:17;57.00;47.33;28.00
64570;PMS5003;74649;52.358;17.020;2023-12-07T23:35:19;58.00;46.00;28.00
64570;PMS5003;74649;52.358;17.020;2023-12-07T23:40:19;58.33;46.67;28.33
64570;PMS5003;74649;52.358;17.020;2023-12-07T23:45:19;57.33;46.00;28.00
64570;PMS5003;74649;52.358;17.020;2023-12-07T23:50:21;55.33;43.33;28.00
64570;PMS5003;74649;52.358;17.020;2023-12-07T23:55:21;56.00;44.00;28.00
